sensor_id;sensor_type;location;lat;lon;timestamp;P1;durP1;ratioP1;P2;durP2;ratioP2
59207;SDS011;44977;53.132;6.408;2023-04-15T00:02:28;12.02;;;5.22;;
59207;SDS011;44977;53.132;6.408;2023-04-15T00:07:30;9.18;;;4.22;;
59207;SDS011;44977;53.132;6.408;2023-04-15T00:12:32;13.55;;;4.93;;
59207;SDS011;44977;53.132;6.408;2023-04-15T00:17:32;11.45;;;5.18;;
59207;SDS011;44977;53.132;6.408;2023-04-15T00:22:33;10.70;;;4.90;;
59207;SDS011;44977;53.132;6.408;2023-04-15T00:27:34;12.45;;;5.30;;
59207;SDS011;44977;53.132;6.408;2023-04-15T00:32:35;10.63;;;5.30;;
59207;SDS011;44977;53.132;6.408;2023-04-15T00:37:35;11.48;;;5.70;;
59207;SDS011;44977;53.132;6.408;2023-04-15T00:42:36;11.32;;;5.97;;
59207;SDS011;44977;53.132;6.408;2023-04-15T00:47:38;13.27;;;6.50;;
59207;SDS011;44977;53.132;6.408;2023-04-15T00:52:42;11.13;;;6.13;;
59207;SDS011;44977;53.132;6.408;2023-04-15T00:57:42;13.07;;;7.13;;
59207;SDS011;44977;53.132;6.408;2023-04-15T01:02:44;11.90;;;7.00;;
59207;SDS011;44977;53.132;6.408;2023-04-15T01:07:45;12.07;;;7.22;;
59207;SDS011;44977;53.132;6.408;2023-04-15T01:12:47;12.88;;;7.82;;
59207;SDS011;44977;53.132;6.408;2023-04-15T01:17:48;13.40;;;8.38;;
59207;SDS011;44977;53.132;6.408;2023-04-15T01:22:49;13.70;;;7.93;;
59207;SDS011;44977;53.132;6.408;2023-04-15T01:27:50;12.80;;;7.88;;
59207;SDS011;44977;53.132;6.408;2023-04-15T01:32:51;12.50;;;8.43;;
59207;SDS011;44977;53.132;6.408;2023-04-15T01:37:52;13.32;;;8.88;;
59207;SDS011;44977;53.132;6.408;2023-04-15T01:42:53;13.52;;;9.18;;
59207;SDS011;44977;53.132;6.408;2023-04-15T01:47:55;13.88;;;8.63;;
59207;SDS011;44977;53.132;6.408;2023-04-15T01:52:55;13.25;;;9.15;;
59207;SDS011;44977;53.132;6.408;2023-04-15T01:57:56;14.40;;;9.88;;
59207;SDS011;44977;53.132;6.408;2023-04-15T02:02:57;12.32;;;9.55;;
59207;SDS011;44977;53.132;6.408;2023-04-15T02:07:58;13.05;;;9.20;;
59207;SDS011;44977;53.132;6.408;2023-04-15T02:12:59;13.82;;;9.85;;
59207;SDS011;44977;53.132;6.408;2023-04-15T02:17:59;13.98;;;9.15;;
59207;SDS011;44977;53.132;6.408;2023-04-15T02:23:00;12.90;;;9.43;;
59207;SDS011;44977;53.132;6.408;2023-04-15T02:28:02;13.13;;;9.55;;
59207;SDS011;44977;53.132;6.408;2023-04-15T02:33:02;11.18;;;8.63;;
59207;SDS011;44977;53.132;6.408;2023-04-15T02:38:03;15.38;;;9.77;;
59207;SDS011;44977;53.132;6.408;2023-04-15T02:43:04;12.50;;;9.32;;
59207;SDS011;44977;53.132;6.408;2023-04-15T02:48:06;11.68;;;8.82;;
59207;SDS011;44977;53.132;6.408;2023-04-15T02:53:06;14.15;;;10.65;;
59207;SDS011;44977;53.132;6.408;2023-04-15T02:58:07;14.57;;;10.05;;
59207;SDS011;44977;53.132;6.408;2023-04-15T03:03:08;14.05;;;10.00;;
59207;SDS011;44977;53.132;6.408;2023-04-15T03:08:09;15.13;;;10.38;;
59207;SDS011;44977;53.132;6.408;2023-04-15T03:13:10;12.65;;;9.55;;
59207;SDS011;44977;53.132;6.408;2023-04-15T03:18:11;15.00;;;10.88;;
59207;SDS011;44977;53.132;6.408;2023-04-15T03:23:11;13.70;;;10.23;;
59207;SDS011;44977;53.132;6.408;2023-04-15T03:28:12;15.18;;;10.90;;
59207;SDS011;44977;53.132;6.408;2023-04-15T03:33:13;14.65;;;10.77;;
59207;SDS011;44977;53.132;6.408;2023-04-15T03:38:13;14.43;;;10.85;;
59207;SDS011;44977;53.132;6.408;2023-04-15T03:43:14;16.73;;;11.32;;
59207;SDS011;44977;53.132;6.408;2023-04-15T03:48:15;14.70;;;10.63;;
59207;SDS011;44977;53.132;6.408;2023-04-15T03:53:16;14.13;;;11.02;;
59207;SDS011;44977;53.132;6.408;2023-04-15T03:58:16;15.02;;;10.85;;
59207;SDS011;44977;53.132;6.408;2023-04-15T04:03:17;14.48;;;11.35;;
59207;SDS011;44977;53.132;6.408;2023-04-15T04:08:18;14.85;;;11.48;;
59207;SDS011;44977;53.132;6.408;2023-04-15T04:13:20;14.60;;;11.65;;
59207;SDS011;44977;53.132;6.408;2023-04-15T04:18:21;17.17;;;12.23;;
59207;SDS011;44977;53.132;6.408;2023-04-15T04:23:22;16.52;;;13.55;;
59207;SDS011;44977;53.132;6.408;2023-04-15T04:28:22;15.95;;;12.82;;
59207;SDS011;44977;53.132;6.408;2023-04-15T04:33:23;16.58;;;13.07;;
59207;SDS011;44977;53.132;6.408;2023-04-15T04:38:24;18.08;;;13.45;;
59207;SDS011;44977;53.132;6.408;2023-04-15T04:43:24;16.77;;;14.32;;
59207;SDS011;44977;53.132;6.408;2023-04-15T04:48:26;19.27;;;14.68;;
59207;SDS011;44977;53.132;6.408;2023-04-15T04:53:26;17.60;;;14.48;;
59207;SDS011;44977;53.132;6.408;2023-04-15T04:58:27;17.85;;;15.52;;
59207;SDS011;44977;53.132;6.408;2023-04-15T05:03:28;18.02;;;14.95;;
59207;SDS011;44977;53.132;6.408;2023-04-15T05:08:29;17.02;;;14.55;;
59207;SDS011;44977;53.132;6.408;2023-04-15T05:13:29;17.45;;;14.93;;
59207;SDS011;44977;53.132;6.408;2023-04-15T05:18:30;18.25;;;14.45;;
59207;SDS011;44977;53.132;6.408;2023-04-15T05:23:31;19.08;;;14.35;;
59207;SDS011;44977;53.132;6.408;2023-04-15T05:28:31;20.10;;;14.68;;
59207;SDS011;44977;53.132;6.408;2023-04-15T05:33:32;17.58;;;14.00;;
59207;SDS011;44977;53.132;6.408;2023-04-15T05:38:33;16.50;;;14.57;;
59207;SDS011;44977;53.132;6.408;2023-04-15T05:43:34;16.42;;;13.00;;
59207;SDS011;44977;53.132;6.408;2023-04-15T05:48:35;14.98;;;13.23;;
59207;SDS011;44977;53.132;6.408;2023-04-15T05:53:35;16.08;;;14.38;;
59207;SDS011;44977;53.132;6.408;2023-04-15T05:58:36;18.52;;;15.10;;
59207;SDS011;44977;53.132;6.408;2023-04-15T06:03:37;16.67;;;13.70;;
59207;SDS011;44977;53.132;6.408;2023-04-15T06:08:38;16.10;;;13.65;;
59207;SDS011;44977;53.132;6.408;2023-04-15T06:13:39;19.02;;;14.45;;
59207;SDS011;44977;53.132;6.408;2023-04-15T06:18:40;17.88;;;13.95;;
59207;SDS011;44977;53.132;6.408;2023-04-15T06:23:40;18.85;;;15.05;;
59207;SDS011;44977;53.132;6.408;2023-04-15T06:28:41;16.98;;;13.60;;
59207;SDS011;44977;53.132;6.408;2023-04-15T06:33:42;17.65;;;14.43;;
59207;SDS011;44977;53.132;6.408;2023-04-15T06:38:42;19.52;;;14.18;;
59207;SDS011;44977;53.132;6.408;2023-04-15T06:43:43;17.85;;;14.93;;
59207;SDS011;44977;53.132;6.408;2023-04-15T06:48:44;18.83;;;14.05;;
59207;SDS011;44977;53.132;6.408;2023-04-15T06:53:44;16.38;;;12.98;;
59207;SDS011;44977;53.132;6.408;2023-04-15T06:58:45;16.58;;;13.10;;
59207;SDS011;44977;53.132;6.408;2023-04-15T07:03:46;19.77;;;13.68;;
59207;SDS011;44977;53.132;6.408;2023-04-15T07:08:46;17.92;;;13.50;;
59207;SDS011;44977;53.132;6.408;2023-04-15T07:13:47;17.52;;;13.30;;
59207;SDS011;44977;53.132;6.408;2023-04-15T07:18:48;20.00;;;14.00;;
59207;SDS011;44977;53.132;6.408;2023-04-15T07:23:49;16.52;;;12.65;;
59207;SDS011;44977;53.132;6.408;2023-04-15T07:28:50;16.23;;;11.43;;
59207;SDS011;44977;53.132;6.408;2023-04-15T07:33:51;14.38;;;10.38;;
59207;SDS011;44977;53.132;6.408;2023-04-15T07:38:52;13.15;;;9.57;;
59207;SDS011;44977;53.132;6.408;2023-04-15T07:43:54;13.15;;;9.10;;
59207;SDS011;44977;53.132;6.408;2023-04-15T07:48:55;12.50;;;8.48;;
59207;SDS011;44977;53.132;6.408;2023-04-15T07:53:55;13.38;;;8.73;;
59207;SDS011;44977;53.132;6.408;2023-04-15T07:58:56;12.32;;;7.95;;
59207;SDS011;44977;53.132;6.408;2023-04-15T08:03:57;12.45;;;8.00;;
59207;SDS011;44977;53.132;6.408;2023-04-15T08:08:58;12.93;;;7.57;;
59207;SDS011;44977;53.132;6.408;2023-04-15T08:14:02;12.95;;;8.63;;
59207;SDS011;44977;53.132;6.408;2023-04-15T08:19:03;11.90;;;7.88;;
59207;SDS011;44977;53.132;6.408;2023-04-15T08:24:04;12.70;;;7.90;;
59207;SDS011;44977;53.132;6.408;2023-04-15T08:29:06;12.73;;;7.90;;
59207;SDS011;44977;53.132;6.408;2023-04-15T08:34:06;11.73;;;8.85;;
59207;SDS011;44977;53.132;6.408;2023-04-15T08:39:07;10.32;;;6.70;;
59207;SDS011;44977;53.132;6.408;2023-04-15T08:44:08;9.93;;;6.40;;
59207;SDS011;44977;53.132;6.408;2023-04-15T08:49:09;10.93;;;5.85;;
59207;SDS011;44977;53.132;6.408;2023-04-15T08:54:12;10.35;;;5.00;;
59207;SDS011;44977;53.132;6.408;2023-04-15T08:59:13;8.20;;;4.68;;
59207;SDS011;44977;53.132;6.408;2023-04-15T09:04:15;9.75;;;4.50;;
59207;SDS011;44977;53.132;6.408;2023-04-15T09:09:16;8.43;;;4.03;;
59207;SDS011;44977;53.132;6.408;2023-04-15T09:14:17;9.25;;;4.90;;
59207;SDS011;44977;53.132;6.408;2023-04-15T09:19:21;9.35;;;4.50;;
59207;SDS011;44977;53.132;6.408;2023-04-15T09:24:23;8.85;;;4.85;;
59207;SDS011;44977;53.132;6.408;2023-04-15T09:29:24;9.57;;;4.70;;
59207;SDS011;44977;53.132;6.408;2023-04-15T09:34:34;10.90;;;4.50;;
59207;SDS011;44977;53.132;6.408;2023-04-15T09:39:46;9.68;;;3.60;;
59207;SDS011;44977;53.132;6.408;2023-04-15T09:44:51;9.35;;;3.58;;
59207;SDS011;44977;53.132;6.408;2023-04-15T09:49:55;7.57;;;2.97;;
59207;SDS011;44977;53.132;6.408;2023-04-15T09:54:57;7.55;;;2.70;;
59207;SDS011;44977;53.132;6.408;2023-04-15T09:59:58;5.05;;;2.20;;
59207;SDS011;44977;53.132;6.408;2023-04-15T10:05:00;4.13;;;1.88;;
59207;SDS011;44977;53.132;6.408;2023-04-15T10:10:01;6.22;;;2.05;;
59207;SDS011;44977;53.132;6.408;2023-04-15T10:15:04;6.00;;;2.20;;
59207;SDS011;44977;53.132;6.408;2023-04-15T10:20:06;4.55;;;1.65;;
59207;SDS011;44977;53.132;6.408;2023-04-15T10:25:08;5.18;;;2.00;;
59207;SDS011;44977;53.132;6.408;2023-04-15T10:30:10;3.58;;;1.83;;
59207;SDS011;44977;53.132;6.408;2023-04-15T10:35:11;5.90;;;2.13;;
59207;SDS011;44977;53.132;6.408;2023-04-15T10:40:26;5.30;;;2.25;;
59207;SDS011;44977;53.132;6.408;2023-04-15T10:45:37;6.88;;;2.20;;
59207;SDS011;44977;53.132;6.408;2023-04-15T10:50:37;6.47;;;2.40;;
59207;SDS011;44977;53.132;6.408;2023-04-15T10:55:38;5.85;;;2.30;;
59207;SDS011;44977;53.132;6.408;2023-04-15T11:00:39;6.63;;;2.40;;
59207;SDS011;44977;53.132;6.408;2023-04-15T11:05:52;7.75;;;2.67;;
59207;SDS011;44977;53.132;6.408;2023-04-15T11:10:53;5.70;;;2.55;;
59207;SDS011;44977;53.132;6.408;2023-04-15T11:15:55;7.20;;;2.80;;
59207;SDS011;44977;53.132;6.408;2023-04-15T11:20:58;9.07;;;2.72;;
59207;SDS011;44977;53.132;6.408;2023-04-15T11:26:01;6.97;;;2.83;;
59207;SDS011;44977;53.132;6.408;2023-04-15T11:31:13;6.55;;;2.33;;
59207;SDS011;44977;53.132;6.408;2023-04-15T11:36:14;7.47;;;2.55;;
59207;SDS011;44977;53.132;6.408;2023-04-15T11:41:18;6.50;;;2.00;;
59207;SDS011;44977;53.132;6.408;2023-04-15T11:46:20;9.30;;;2.70;;
59207;SDS011;44977;53.132;6.408;2023-04-15T11:51:30;6.82;;;2.30;;
59207;SDS011;44977;53.132;6.408;2023-04-15T11:56:33;9.35;;;2.50;;
59207;SDS011;44977;53.132;6.408;2023-04-15T12:01:34;6.25;;;2.25;;
59207;SDS011;44977;53.132;6.408;2023-04-15T12:06:38;8.30;;;2.45;;
59207;SDS011;44977;53.132;6.408;2023-04-15T12:11:45;7.95;;;2.30;;
59207;SDS011;44977;53.132;6.408;2023-04-15T12:16:48;8.88;;;2.60;;
59207;SDS011;44977;53.132;6.408;2023-04-15T12:21:56;10.02;;;2.60;;
59207;SDS011;44977;53.132;6.408;2023-04-15T12:27:07;9.90;;;2.70;;
59207;SDS011;44977;53.132;6.408;2023-04-15T12:32:10;8.98;;;2.60;;
59207;SDS011;44977;53.132;6.408;2023-04-15T12:37:12;10.85;;;2.58;;
59207;SDS011;44977;53.132;6.408;2023-04-15T12:42:14;10.15;;;2.88;;
59207;SDS011;44977;53.132;6.408;2023-04-15T12:47:15;7.78;;;2.20;;
59207;SDS011;44977;53.132;6.408;2023-04-15T12:52:16;9.55;;;2.22;;
59207;SDS011;44977;53.132;6.408;2023-04-15T12:57:17;8.07;;;2.30;;
59207;SDS011;44977;53.132;6.408;2023-04-15T13:02:17;8.55;;;2.00;;
59207;SDS011;44977;53.132;6.408;2023-04-15T13:07:20;9.45;;;2.40;;
59207;SDS011;44977;53.132;6.408;2023-04-15T13:12:20;9.15;;;2.58;;
59207;SDS011;44977;53.132;6.408;2023-04-15T13:17:21;15.35;;;2.40;;
59207;SDS011;44977;53.132;6.408;2023-04-15T13:22:22;9.02;;;2.20;;
59207;SDS011;44977;53.132;6.408;2023-04-15T13:27:22;10.02;;;2.65;;
59207;SDS011;44977;53.132;6.408;2023-04-15T13:32:23;9.70;;;2.35;;
59207;SDS011;44977;53.132;6.408;2023-04-15T13:37:25;11.50;;;2.60;;
59207;SDS011;44977;53.132;6.408;2023-04-15T13:42:27;11.25;;;2.42;;
59207;SDS011;44977;53.132;6.408;2023-04-15T13:47:27;12.48;;;3.28;;
59207;SDS011;44977;53.132;6.408;2023-04-15T13:52:28;12.05;;;2.83;;
59207;SDS011;44977;53.132;6.408;2023-04-15T13:57:29;10.30;;;2.78;;
59207;SDS011;44977;53.132;6.408;2023-04-15T14:02:30;10.73;;;2.33;;
59207;SDS011;44977;53.132;6.408;2023-04-15T14:07:31;12.63;;;2.80;;
59207;SDS011;44977;53.132;6.408;2023-04-15T14:12:32;13.75;;;2.67;;
59207;SDS011;44977;53.132;6.408;2023-04-15T14:17:32;7.65;;;2.20;;
59207;SDS011;44977;53.132;6.408;2023-04-15T14:22:33;9.95;;;2.20;;
59207;SDS011;44977;53.132;6.408;2023-04-15T14:27:34;10.98;;;2.65;;
59207;SDS011;44977;53.132;6.408;2023-04-15T14:32:34;9.50;;;2.45;;
59207;SDS011;44977;53.132;6.408;2023-04-15T14:37:35;10.57;;;2.90;;
59207;SDS011;44977;53.132;6.408;2023-04-15T14:42:36;11.82;;;3.47;;
59207;SDS011;44977;53.132;6.408;2023-04-15T14:47:36;11.93;;;3.33;;
59207;SDS011;44977;53.132;6.408;2023-04-15T14:52:37;10.52;;;3.30;;
59207;SDS011;44977;53.132;6.408;2023-04-15T14:57:39;19.33;;;3.88;;
59207;SDS011;44977;53.132;6.408;2023-04-15T15:02:40;12.13;;;3.25;;
59207;SDS011;44977;53.132;6.408;2023-04-15T15:07:41;11.25;;;3.33;;
59207;SDS011;44977;53.132;6.408;2023-04-15T15:12:42;11.50;;;3.55;;
59207;SDS011;44977;53.132;6.408;2023-04-15T15:17:42;14.15;;;4.00;;
59207;SDS011;44977;53.132;6.408;2023-04-15T15:22:43;12.40;;;3.75;;
59207;SDS011;44977;53.132;6.408;2023-04-15T15:27:44;13.63;;;4.03;;
59207;SDS011;44977;53.132;6.408;2023-04-15T15:32:44;14.15;;;3.92;;
59207;SDS011;44977;53.132;6.408;2023-04-15T15:37:45;14.23;;;4.03;;
59207;SDS011;44977;53.132;6.408;2023-04-15T15:42:46;12.52;;;4.00;;
59207;SDS011;44977;53.132;6.408;2023-04-15T15:47:49;15.93;;;4.82;;
59207;SDS011;44977;53.132;6.408;2023-04-15T15:52:50;14.25;;;4.35;;
59207;SDS011;44977;53.132;6.408;2023-04-15T15:57:51;14.80;;;4.07;;
59207;SDS011;44977;53.132;6.408;2023-04-15T16:02:54;14.68;;;4.00;;
59207;SDS011;44977;53.132;6.408;2023-04-15T16:07:55;18.52;;;4.10;;
59207;SDS011;44977;53.132;6.408;2023-04-15T16:12:56;14.63;;;4.40;;
59207;SDS011;44977;53.132;6.408;2023-04-15T16:17:57;14.88;;;4.10;;
59207;SDS011;44977;53.132;6.408;2023-04-15T16:22:58;17.67;;;4.32;;
59207;SDS011;44977;53.132;6.408;2023-04-15T16:27:59;16.00;;;4.30;;
59207;SDS011;44977;53.132;6.408;2023-04-15T16:32:59;16.55;;;4.38;;
59207;SDS011;44977;53.132;6.408;2023-04-15T16:38:00;17.88;;;4.88;;
59207;SDS011;44977;53.132;6.408;2023-04-15T16:43:01;15.77;;;4.60;;
59207;SDS011;44977;53.132;6.408;2023-04-15T16:48:02;16.02;;;4.88;;
59207;SDS011;44977;53.132;6.408;2023-04-15T16:53:03;16.73;;;5.28;;
59207;SDS011;44977;53.132;6.408;2023-04-15T16:58:04;18.52;;;4.75;;
59207;SDS011;44977;53.132;6.408;2023-04-15T17:03:05;17.15;;;5.13;;
59207;SDS011;44977;53.132;6.408;2023-04-15T17:08:05;18.05;;;5.68;;
59207;SDS011;44977;53.132;6.408;2023-04-15T17:13:07;22.90;;;6.45;;
59207;SDS011;44977;53.132;6.408;2023-04-15T17:18:08;16.67;;;6.03;;
59207;SDS011;44977;53.132;6.408;2023-04-15T17:23:09;19.75;;;6.00;;
59207;SDS011;44977;53.132;6.408;2023-04-15T17:28:10;20.10;;;6.10;;
59207;SDS011;44977;53.132;6.408;2023-04-15T17:33:11;18.73;;;6.57;;
59207;SDS011;44977;53.132;6.408;2023-04-15T17:38:11;17.95;;;5.85;;
59207;SDS011;44977;53.132;6.408;2023-04-15T17:43:12;21.20;;;6.97;;
59207;SDS011;44977;53.132;6.408;2023-04-15T17:48:13;16.40;;;6.22;;
59207;SDS011;44977;53.132;6.408;2023-04-15T17:53:14;19.30;;;6.30;;
59207;SDS011;44977;53.132;6.408;2023-04-15T17:58:15;20.17;;;6.32;;
59207;SDS011;44977;53.132;6.408;2023-04-15T18:03:15;17.63;;;6.50;;
59207;SDS011;44977;53.132;6.408;2023-04-15T18:08:16;18.35;;;7.25;;
59207;SDS011;44977;53.132;6.408;2023-04-15T18:13:17;18.00;;;6.90;;
59207;SDS011;44977;53.132;6.408;2023-04-15T18:18:17;24.58;;;8.05;;
59207;SDS011;44977;53.132;6.408;2023-04-15T18:23:18;22.27;;;8.60;;
59207;SDS011;44977;53.132;6.408;2023-04-15T18:28:19;21.23;;;8.18;;
59207;SDS011;44977;53.132;6.408;2023-04-15T18:33:21;20.63;;;8.07;;
59207;SDS011;44977;53.132;6.408;2023-04-15T18:38:22;22.63;;;8.15;;
59207;SDS011;44977;53.132;6.408;2023-04-15T18:43:23;19.67;;;8.68;;
59207;SDS011;44977;53.132;6.408;2023-04-15T18:48:27;25.45;;;9.27;;
59207;SDS011;44977;53.132;6.408;2023-04-15T18:53:27;20.58;;;8.82;;
59207;SDS011;44977;53.132;6.408;2023-04-15T18:58:28;25.67;;;9.07;;
59207;SDS011;44977;53.132;6.408;2023-04-15T19:03:29;27.60;;;9.75;;
59207;SDS011;44977;53.132;6.408;2023-04-15T19:08:30;23.90;;;10.45;;
59207;SDS011;44977;53.132;6.408;2023-04-15T19:13:31;23.30;;;9.80;;
59207;SDS011;44977;53.132;6.408;2023-04-15T19:18:32;27.92;;;11.73;;
59207;SDS011;44977;53.132;6.408;2023-04-15T19:23:32;31.13;;;12.02;;
59207;SDS011;44977;53.132;6.408;2023-04-15T19:28:33;27.52;;;12.40;;
59207;SDS011;44977;53.132;6.408;2023-04-15T19:33:34;31.58;;;13.13;;
59207;SDS011;44977;53.132;6.408;2023-04-15T19:38:34;30.65;;;13.98;;
59207;SDS011;44977;53.132;6.408;2023-04-15T19:43:36;29.17;;;13.38;;
59207;SDS011;44977;53.132;6.408;2023-04-15T19:48:37;31.67;;;13.63;;
59207;SDS011;44977;53.132;6.408;2023-04-15T19:53:37;32.35;;;15.20;;
59207;SDS011;44977;53.132;6.408;2023-04-15T19:58:39;34.83;;;16.55;;
59207;SDS011;44977;53.132;6.408;2023-04-15T20:03:40;35.85;;;16.45;;
59207;SDS011;44977;53.132;6.408;2023-04-15T20:08:41;40.50;;;19.20;;
59207;SDS011;44977;53.132;6.408;2023-04-15T20:13:41;34.13;;;16.05;;
59207;SDS011;44977;53.132;6.408;2023-04-15T20:18:42;43.45;;;19.83;;
59207;SDS011;44977;53.132;6.408;2023-04-15T20:23:43;39.03;;;17.67;;
59207;SDS011;44977;53.132;6.408;2023-04-15T20:28:43;48.08;;;21.48;;
59207;SDS011;44977;53.132;6.408;2023-04-15T20:33:44;42.33;;;20.95;;
59207;SDS011;44977;53.132;6.408;2023-04-15T20:38:45;46.15;;;22.08;;
59207;SDS011;44977;53.132;6.408;2023-04-15T20:43:45;44.90;;;21.58;;
59207;SDS011;44977;53.132;6.408;2023-04-15T20:48:46;44.40;;;23.42;;
59207;SDS011;44977;53.132;6.408;2023-04-15T20:53:47;49.33;;;26.23;;
59207;SDS011;44977;53.132;6.408;2023-04-15T20:58:48;49.42;;;24.77;;
59207;SDS011;44977;53.132;6.408;2023-04-15T21:03:49;51.15;;;25.17;;
59207;SDS011;44977;53.132;6.408;2023-04-15T21:08:50;48.05;;;24.23;;
59207;SDS011;44977;53.132;6.408;2023-04-15T21:13:51;49.50;;;25.25;;
59207;SDS011;44977;53.132;6.408;2023-04-15T21:18:52;53.72;;;24.88;;
59207;SDS011;44977;53.132;6.408;2023-04-15T21:23:53;56.25;;;26.77;;
59207;SDS011;44977;53.132;6.408;2023-04-15T21:28:54;49.40;;;26.17;;
59207;SDS011;44977;53.132;6.408;2023-04-15T21:33:55;52.38;;;26.73;;
59207;SDS011;44977;53.132;6.408;2023-04-15T21:38:56;54.65;;;27.27;;
59207;SDS011;44977;53.132;6.408;2023-04-15T21:43:56;58.70;;;26.40;;
59207;SDS011;44977;53.132;6.408;2023-04-15T21:48:57;53.80;;;25.80;;
59207;SDS011;44977;53.132;6.408;2023-04-15T21:53:58;53.20;;;26.42;;
59207;SDS011;44977;53.132;6.408;2023-04-15T21:58:59;61.30;;;28.58;;
59207;SDS011;44977;53.132;6.408;2023-04-15T22:04:00;59.08;;;28.45;;
59207;SDS011;44977;53.132;6.408;2023-04-15T22:09:00;64.72;;;28.85;;
59207;SDS011;44977;53.132;6.408;2023-04-15T22:14:01;55.80;;;27.70;;
59207;SDS011;44977;53.132;6.408;2023-04-15T22:19:03;55.72;;;26.38;;
59207;SDS011;44977;53.132;6.408;2023-04-15T22:24:04;59.15;;;29.05;;
59207;SDS011;44977;53.132;6.408;2023-04-15T22:29:05;59.38;;;29.15;;
59207;SDS011;44977;53.132;6.408;2023-04-15T22:34:06;50.25;;;26.60;;
59207;SDS011;44977;53.132;6.408;2023-04-15T22:39:07;54.72;;;28.77;;
59207;SDS011;44977;53.132;6.408;2023-04-15T22:44:08;62.75;;;30.58;;
59207;SDS011;44977;53.132;6.408;2023-04-15T22:49:08;58.22;;;29.65;;
59207;SDS011;44977;53.132;6.408;2023-04-15T22:54:09;59.80;;;30.13;;
59207;SDS011;44977;53.132;6.408;2023-04-15T22:59:10;57.03;;;30.65;;
59207;SDS011;44977;53.132;6.408;2023-04-15T23:04:11;57.60;;;30.25;;
59207;SDS011;44977;53.132;6.408;2023-04-15T23:09:11;55.60;;;30.55;;
59207;SDS011;44977;53.132;6.408;2023-04-15T23:14:12;63.08;;;31.20;;
59207;SDS011;44977;53.132;6.408;2023-04-15T23:19:13;62.95;;;33.58;;
59207;SDS011;44977;53.132;6.408;2023-04-15T23:24:13;70.30;;;35.75;;
59207;SDS011;44977;53.132;6.408;2023-04-15T23:29:14;60.53;;;31.83;;
59207;SDS011;44977;53.132;6.408;2023-04-15T23:34:15;59.13;;;33.40;;
59207;SDS011;44977;53.132;6.408;2023-04-15T23:39:16;73.30;;;34.95;;
59207;SDS011;44977;53.132;6.408;2023-04-15T23:44:16;58.15;;;31.35;;
59207;SDS011;44977;53.132;6.408;2023-04-15T23:49:17;73.63;;;35.70;;
59207;SDS011;44977;53.132;6.408;2023-04-15T23:54:18;68.80;;;34.63;;
59207;SDS011;44977;53.132;6.408;2023-04-15T23:59:18;74.45;;;35.72;;
